createdAt,value
2022-10-06T03:39:02.632Z,94.20
2022-10-06T03:42:05.897Z,94.20
2022-10-06T03:45:08.972Z,96.06
2022-10-06T03:48:11.847Z,95.69
2022-10-06T03:51:24.208Z,95.60
2022-10-06T03:54:26.823Z,95.00
2022-10-06T03:57:29.214Z,95.00
2022-10-06T04:00:31.958Z,94.15
2022-10-06T04:03:35.421Z,94.30
2022-10-06T04:06:40.136Z,94.63
2022-10-06T04:09:43.181Z,94.68
2022-10-06T04:12:46.345Z,93.99
2022-10-06T04:15:49.189Z,94.22
2022-10-06T04:18:54.463Z,93.38
2022-10-06T04:21:57.071Z,93.18
2022-10-06T04:24:59.516Z,93.65
2022-10-06T04:28:02.328Z,93.75
2022-10-06T04:31:11.601Z,92.84
2022-10-06T04:34:15.871Z,92.51
2022-10-06T04:37:18.956Z,93.16
2022-10-06T04:40:21.724Z,93.73
2022-10-06T04:43:25.008Z,94.12
2022-10-06T04:46:44.910Z,94.10
2022-10-06T04:49:47.954Z,94.23
2022-10-06T04:52:52.943Z,93.52
2022-10-06T04:56:12.717Z,93.65
2022-10-06T04:59:16.125Z,94.06
2022-10-06T05:02:20.522Z,93.47
2022-10-06T05:05:24.069Z,93.77
2022-10-06T05:08:27.842Z,93.31
2022-10-06T05:11:31.853Z,93.87
2022-10-06T05:14:34.179Z,93.52
2022-10-06T05:17:36.827Z,93.01
2022-10-06T05:20:40.306Z,93.36
2022-10-06T05:23:46.021Z,93.84
2022-10-06T05:26:49.056Z,93.84
2022-10-06T05:29:52.272Z,93.60
2022-10-06T05:32:54.617Z,93.33
2022-10-06T05:35:59.703Z,93.08
2022-10-06T05:39:03.766Z,92.56
2022-10-06T05:42:08.453Z,92.55
2022-10-06T05:45:11.326Z,92.51
2022-10-06T05:48:13.982Z,92.34
2022-10-06T05:51:18.317Z,91.91
2022-10-06T05:54:21.010Z,91.36
2022-10-06T05:57:24.017Z,91.27
2022-10-06T06:00:26.764Z,91.33
2022-10-06T06:03:29.379Z,91.12
2022-10-06T06:06:37.081Z,91.23
2022-10-06T06:09:40.276Z,91.19
2022-10-06T06:12:42.744Z,90.68
2022-10-06T06:16:01.923Z,90.47
2022-10-06T06:19:06.014Z,89.96
2022-10-06T06:22:09.298Z,90.09
2022-10-06T06:25:12.946Z,89.60
2022-10-06T06:28:16.163Z,88.90
2022-10-06T06:31:26.531Z,88.13
2022-10-06T06:34:30.090Z,88.12
2022-10-06T06:37:33.393Z,87.83
2022-10-06T06:40:40.677Z,87.70
2022-10-06T06:43:43.861Z,87.40
2022-10-06T06:46:49.269Z,87.46
2022-10-06T06:49:52.734Z,86.97
2022-10-06T06:52:55.463Z,86.68
2022-10-06T06:55:58.026Z,87.09
2022-10-06T06:59:02.296Z,87.10
2022-10-06T07:02:04.874Z,86.77
2022-10-06T07:05:08.303Z,87.15
2022-10-06T07:08:11.845Z,86.42
2022-10-06T07:11:17.559Z,86.01
2022-10-06T07:14:22.527Z,84.69
2022-10-06T07:17:43.681Z,82.96
2022-10-06T07:21:04.939Z,81.77
2022-10-06T07:24:27.777Z,81.02
2022-10-06T07:27:32.171Z,79.23
2022-10-06T07:30:40.459Z,78.98
2022-10-06T07:33:43.701Z,77.99
2022-10-06T07:36:48.657Z,78.01
2022-10-06T07:39:51.730Z,76.58
2022-10-06T07:42:54.477Z,72.84
2022-10-06T07:45:57.880Z,72.24
2022-10-06T07:49:01.396Z,71.59
2022-10-06T07:52:04.340Z,70.60
2022-10-06T07:55:07.422Z,68.81
2022-10-06T07:58:22.432Z,70.12
2022-10-06T08:01:30.232Z,70.14
2022-10-06T08:04:33.096Z,70.16
2022-10-06T08:07:35.694Z,69.75
2022-10-06T08:10:38.581Z,70.15
2022-10-06T08:13:43.162Z,69.40
2022-10-06T08:16:46.165Z,69.50
2022-10-06T08:19:48.644Z,68.12
2022-10-06T08:22:51.286Z,67.45
2022-10-06T08:25:55.453Z,67.30
2022-10-06T08:28:59.737Z,66.48
2022-10-06T08:32:03.124Z,66.74
2022-10-06T08:35:05.879Z,64.56
2022-10-06T08:38:08.191Z,56.44
2022-10-06T08:41:25.272Z,47.83
2022-10-06T08:44:39.110Z,37.12
2022-10-06T08:47:50.713Z,32.18
2022-10-06T08:51:19.734Z,29.43
2022-10-06T08:54:33.578Z,27.12
2022-10-06T08:57:55.355Z,30.15
2022-10-06T09:01:14.219Z,36.58
2022-10-06T09:04:28.142Z,40.92
2022-10-06T09:08:07.625Z,43.87
2022-10-06T09:11:22.005Z,47.74
2022-10-06T09:14:37.511Z,51.08
2022-10-06T09:17:50.172Z,53.40
2022-10-06T09:21:02.826Z,53.02
2022-10-06T09:24:15.316Z,53.03
2022-10-06T09:27:24.317Z,52.86
2022-10-06T09:30:27.276Z,53.67
2022-10-06T09:33:36.827Z,54.58
2022-10-06T09:37:03.229Z,54.59
2022-10-06T09:40:44.728Z,54.47
2022-10-06T09:43:57.361Z,53.09
2022-10-06T09:47:00.005Z,52.57
2022-10-06T09:50:16.711Z,52.73
2022-10-06T09:53:21.598Z,51.60
2022-10-06T09:56:24.190Z,51.42
2022-10-06T09:59:39.083Z,52.97
2022-10-06T10:02:42.687Z,53.42
2022-10-06T10:05:50.506Z,52.25
2022-10-06T10:09:14.724Z,52.32
2022-10-06T10:12:31.064Z,51.90
2022-10-06T10:15:48.495Z,52.29
2022-10-06T10:18:51.488Z,52.45
2022-10-06T10:21:57.940Z,52.00
2022-10-06T10:25:29.592Z,52.69
2022-10-06T10:28:52.100Z,51.28
2022-10-06T10:32:02.802Z,51.06
2022-10-06T10:35:28.344Z,50.48
2022-10-06T10:38:32.276Z,50.55
2022-10-06T10:41:44.032Z,50.66
2022-10-06T10:44:54.993Z,50.90
2022-10-06T10:47:59.457Z,51.67
2022-10-06T10:51:19.522Z,52.95
2022-10-06T10:54:26.703Z,52.41
2022-10-06T10:57:43.938Z,53.92
2022-10-06T11:00:53.935Z,53.39
2022-10-06T11:03:58.718Z,53.28
2022-10-06T11:07:16.947Z,53.33
2022-10-06T11:10:50.386Z,54.67
2022-10-06T11:13:56.505Z,53.85
2022-10-06T11:17:13.297Z,55.29
2022-10-06T11:20:47.072Z,54.60
2022-10-06T11:23:57.331Z,54.34
2022-10-06T11:27:17.555Z,54.11
2022-10-06T11:30:26.368Z,54.48
2022-10-06T11:33:45.686Z,55.09
2022-10-06T11:36:51.087Z,55.97
2022-10-06T11:40:25.653Z,55.66
2022-10-06T11:43:55.271Z,56.06
2022-10-06T11:47:36.301Z,55.40
2022-10-06T11:50:42.276Z,54.73
2022-10-06T11:53:45.071Z,54.43
2022-10-06T11:56:47.938Z,54.09
2022-10-06T11:59:56.280Z,53.52
2022-10-06T12:03:33.528Z,53.14
2022-10-06T12:06:42.481Z,53.04
2022-10-06T12:09:46.176Z,51.69
2022-10-06T12:13:06.116Z,51.01
2022-10-06T12:20:13.204Z,53.13
2022-10-06T12:23:38.937Z,52.38
2022-10-06T12:26:44.553Z,53.65
2022-10-06T12:29:54.453Z,53.97
2022-10-06T12:32:59.004Z,52.72
2022-10-06T12:36:03.393Z,53.13
2022-10-06T12:39:23.737Z,52.45
2022-10-06T12:42:31.244Z,52.02
2022-10-06T12:45:34.446Z,52.04
2022-10-06T12:48:53.655Z,52.77
2022-10-06T12:51:59.677Z,53.77
2022-10-06T12:55:14.540Z,51.97
2022-10-06T12:58:28.734Z,52.17
2022-10-06T13:01:32.690Z,53.91
2022-10-06T13:04:44.886Z,52.36
2022-10-06T13:08:04.569Z,51.94
2022-10-06T13:11:29.797Z,51.71
2022-10-06T13:14:32.096Z,51.70
2022-10-06T13:17:35.314Z,51.94
2022-10-06T13:20:45.896Z,50.65
2022-10-06T13:23:49.479Z,50.35
2022-10-06T13:26:52.581Z,50.14
2022-10-06T13:30:12.566Z,50.66
2022-10-06T13:33:15.547Z,49.90
2022-10-06T13:36:19.716Z,50.91
2022-10-06T13:39:24.555Z,51.43
2022-10-06T13:42:28.814Z,51.36
2022-10-06T13:45:31.775Z,51.72
2022-10-06T13:48:34.596Z,51.97
2022-10-06T13:51:37.096Z,52.12
2022-10-06T13:55:00.485Z,52.43
2022-10-06T13:58:06.572Z,52.97
2022-10-06T14:01:13.039Z,52.66
2022-10-06T14:04:20.787Z,51.97
2022-10-06T14:07:23.059Z,51.86
2022-10-06T14:10:37.795Z,51.80
2022-10-06T14:13:52.083Z,52.10
2022-10-06T14:16:55.250Z,52.43
2022-10-06T14:19:57.856Z,52.74
2022-10-06T14:23:00.524Z,53.63
2022-10-06T14:26:02.882Z,53.47
2022-10-06T14:29:05.641Z,54.45
2022-10-06T14:32:13.210Z,54.09
2022-10-06T14:35:15.740Z,55.63
2022-10-06T14:38:19.215Z,55.51
2022-10-06T14:41:24.958Z,55.58
2022-10-06T14:44:27.264Z,56.97
2022-10-06T14:47:31.283Z,57.83
2022-10-06T14:50:35.021Z,59.46
2022-10-06T14:53:39.465Z,61.69
2022-10-06T14:56:42.402Z,62.12
2022-10-06T14:59:45.227Z,61.72
2022-10-06T15:02:48.094Z,63.50
2022-10-06T15:06:09.413Z,58.75
2022-10-06T15:09:11.940Z,60.56
2022-10-06T15:12:14.704Z,62.09
2022-10-06T15:15:17.122Z,63.69
2022-10-06T15:18:19.723Z,64.08
2022-10-06T15:21:23.733Z,64.53
2022-10-06T15:24:26.328Z,65.46
2022-10-06T15:27:47.033Z,65.50
2022-10-06T15:30:50.615Z,63.93
2022-10-06T15:33:54.775Z,64.52
2022-10-06T15:36:58.394Z,62.93
2022-10-06T15:40:01.642Z,62.71
2022-10-06T15:43:04.218Z,61.98
2022-10-06T15:46:06.571Z,61.73
2022-10-06T15:49:10.780Z,61.93
2022-10-06T15:52:13.655Z,62.11
